Time;durP1;ratioP1;P1;durP2;ratioP2;P2;SDS_P1;SDS_P2;PMS_P1;PMS_P2;Temp;Humidity;BMP_temperature;BMP_pressure;BME280_temperature;BME280_humidity;BME280_pressure;Samples;Min_cycle;Max_cycle;Signal;HPM_P1;HPM_P2
2023/06/07 00:00:08;;;;;;;6.40;5.80;;;15.60;99.90;;;;;;4972106;28;20215;-63
2023/06/07 00:02:34;;;;;;;6.73;6.23;;;15.50;99.90;;;;;;4969066;28;20602;-64
2023/06/07 00:04:59;;;;;;;7.10;6.50;;;15.40;99.90;;;;;;4965789;28;20444;-63
2023/06/07 00:07:25;;;;;;;6.83;6.23;;;15.40;99.90;;;;;;4971957;28;20200;-64
2023/06/07 00:09:51;;;;;;;7.93;7.30;;;15.40;99.90;;;;;;4970560;28;20223;-64
2023/06/07 00:12:16;;;;;;;8.30;6.67;;;15.40;99.90;;;;;;4973360;28;20224;-64
2023/06/07 00:14:43;;;;;;;6.87;6.27;;;15.30;99.90;;;;;;4965040;28;20184;-64
2023/06/07 00:17:09;;;;;;;7.17;6.57;;;15.10;99.90;;;;;;4971288;28;20550;-64
2023/06/07 00:19:35;;;;;;;8.90;6.70;;;15.00;99.90;;;;;;4972756;28;20439;-63
2023/06/07 00:22:01;;;;;;;6.50;6.00;;;15.10;99.90;;;;;;4969689;28;20447;-64
2023/06/07 00:24:27;;;;;;;6.83;6.00;;;15.10;99.90;;;;;;4973696;28;20218;-63
2023/06/07 00:26:53;;;;;;;6.90;6.30;;;15.20;99.90;;;;;;4971363;28;20502;-64
2023/06/07 00:29:19;;;;;;;7.80;7.20;;;15.30;99.90;;;;;;4973620;28;20688;-64
2023/06/07 00:31:44;;;;;;;6.93;6.30;;;15.30;99.90;;;;;;4972761;28;20204;-62
2023/06/07 00:34:10;;;;;;;6.97;6.47;;;15.20;99.90;;;;;;4970700;28;20801;-63
2023/06/07 00:36:35;;;;;;;7.20;6.50;;;15.30;99.90;;;;;;4970153;28;20815;-64
2023/06/07 00:39:04;;;;;;;7.00;6.50;;;15.30;99.90;;;;;;4969685;28;20833;-64
2023/06/07 00:41:30;;;;;;;6.53;5.93;;;15.20;99.90;;;;;;4965698;28;20196;-64
2023/06/07 00:43:56;;;;;;;6.80;6.27;;;15.10;99.90;;;;;;4972146;28;20432;-64
2023/06/07 00:46:23;;;;;;;7.83;7.13;;;15.00;99.90;;;;;;4972785;28;20228;-64
2023/06/07 00:48:51;;;;;;;7.23;6.60;;;14.80;99.90;;;;;;4948564;28;20541;-64
2023/06/07 00:51:17;;;;;;;7.73;7.03;;;14.60;99.90;;;;;;4969116;28;20888;-64
2023/06/07 00:53:46;;;;;;;7.83;7.10;;;14.60;99.90;;;;;;4969733;28;20474;-64
2023/06/07 00:56:12;;;;;;;7.33;6.63;;;14.70;99.90;;;;;;4965498;28;20980;-63
2023/06/07 00:58:38;;;;;;;7.60;6.77;;;14.70;99.90;;;;;;4968459;28;20447;-64
2023/06/07 01:01:05;;;;;;;8.30;7.60;;;14.60;99.90;;;;;;4974800;28;20210;-64
2023/06/07 01:03:34;;;;;;;7.70;7.10;;;14.60;99.90;;;;;;4971746;28;20195;-64
2023/06/07 01:06:02;;;;;;;7.30;6.70;;;14.70;99.90;;;;;;4973311;28;20446;-64
2023/06/07 01:08:29;;;;;;;7.93;7.13;;;14.80;99.90;;;;;;4971507;28;20937;-64
2023/06/07 01:10:56;;;;;;;6.77;6.17;;;14.80;99.90;;;;;;4972991;28;20534;-63
2023/06/07 01:13:22;;;;;;;7.77;7.17;;;14.70;99.90;;;;;;4972934;28;20442;-63
2023/06/07 01:15:47;;;;;;;7.30;6.80;;;14.60;99.90;;;;;;4967661;28;20534;-64
2023/06/07 01:18:13;;;;;;;7.40;6.80;;;14.60;99.90;;;;;;4969905;28;20191;-64
2023/06/07 01:20:46;;;;;;;7.03;6.50;;;14.50;99.90;;;;;;4969930;28;20486;-64
2023/06/07 01:23:14;;;;;;;6.83;6.23;;;14.40;99.90;;;;;;4970618;28;20180;-65
2023/06/07 01:25:39;;;;;;;6.63;6.23;;;14.40;99.90;;;;;;4971112;28;20812;-64
2023/06/07 01:28:06;;;;;;;7.10;6.60;;;14.40;99.90;;;;;;4971774;28;20480;-64
2023/06/07 01:30:32;;;;;;;7.10;6.57;;;14.30;99.90;;;;;;4972497;28;20286;-64
2023/06/07 01:33:04;;;;;;;7.10;6.60;;;14.20;99.90;;;;;;4972680;28;20439;-64
2023/06/07 01:35:30;;;;;;;7.90;7.30;;;14.10;99.90;;;;;;4971630;28;20466;-64
2023/06/07 01:37:56;;;;;;;7.50;6.90;;;14.10;99.90;;;;;;4968825;28;20432;-63
2023/06/07 01:40:22;;;;;;;8.27;7.57;;;14.00;99.90;;;;;;4962450;28;20472;-63
2023/06/07 01:42:49;;;;;;;11.83;10.63;;;14.00;99.90;;;;;;4971114;28;20451;-64
2023/06/07 01:45:15;;;;;;;7.53;6.80;;;13.90;99.90;;;;;;4966181;28;20436;-64
2023/06/07 01:47:41;;;;;;;8.00;7.30;;;13.80;99.90;;;;;;4970922;28;20459;-64
2023/06/07 01:50:08;;;;;;;8.40;7.80;;;13.90;99.90;;;;;;4966501;28;20631;-63
2023/06/07 01:52:34;;;;;;;6.97;6.47;;;13.90;99.90;;;;;;4970940;28;20307;-65
2023/06/07 01:55:01;;;;;;;8.30;7.70;;;13.90;99.90;;;;;;4971536;28;20816;-64
2023/06/07 01:57:59;;;;;;;8.53;7.83;;;13.80;99.90;;;;;;4967962;28;20180;-64
2023/06/07 02:00:37;;;;;;;6.60;6.10;;;13.80;99.90;;;;;;4958810;28;20459;-65
2023/06/07 02:03:10;;;;;;;7.20;6.60;;;13.80;99.90;;;;;;4967732;28;20447;-64
2023/06/07 02:05:40;;;;;;;7.20;6.70;;;13.60;99.90;;;;;;4971160;28;20523;-65
2023/06/07 02:08:14;;;;;;;8.37;7.67;;;13.50;99.90;;;;;;4967710;28;20471;-65
2023/06/07 02:10:42;;;;;;;7.63;6.83;;;13.40;99.90;;;;;;4971562;28;20471;-65
2023/06/07 02:13:08;;;;;;;11.30;7.07;;;13.40;99.90;;;;;;4969160;28;20455;-64
2023/06/07 02:15:34;;;;;;;9.00;8.30;;;13.50;99.90;;;;;;4970496;28;20881;-64
2023/06/07 02:18:01;;;;;;;8.53;7.83;;;13.40;99.90;;;;;;4970792;28;20475;-63
2023/06/07 02:20:31;;;;;;;7.90;7.40;;;13.50;99.90;;;;;;4971187;28;20586;-65
2023/06/07 02:22:57;;;;;;;8.70;7.90;;;13.60;99.90;;;;;;4967263;28;20431;-64
2023/06/07 02:25:24;;;;;;;8.10;7.40;;;13.70;99.90;;;;;;4974051;28;20459;-65
2023/06/07 02:27:50;;;;;;;7.60;6.80;;;13.80;99.90;;;;;;4970980;28;20519;-63
2023/06/07 02:30:16;;;;;;;7.50;7.00;;;13.80;99.90;;;;;;4971203;28;20538;-64
2023/06/07 02:32:45;;;;;;;7.27;6.53;;;13.70;99.90;;;;;;4974235;28;20208;-64
2023/06/07 02:35:10;;;;;;;9.90;7.37;;;13.60;99.90;;;;;;4970185;28;20188;-64
2023/06/07 02:37:36;;;;;;;8.43;7.63;;;13.60;99.90;;;;;;4975315;28;20446;-65
2023/06/07 02:40:04;;;;;;;7.77;7.10;;;13.70;99.90;;;;;;4974065;28;20322;-64
2023/06/07 02:42:30;;;;;;;7.87;7.17;;;13.80;99.90;;;;;;4974629;28;20227;-65
2023/06/07 02:44:56;;;;;;;8.03;7.33;;;13.90;99.90;;;;;;4972007;28;20462;-64
2023/06/07 02:47:21;;;;;;;8.40;7.20;;;13.70;99.90;;;;;;4971795;28;20189;-65
2023/06/07 02:49:47;;;;;;;7.23;6.73;;;13.50;99.90;;;;;;4972315;28;20211;-64
2023/06/07 02:52:12;;;;;;;7.83;7.30;;;13.40;99.90;;;;;;4973749;28;20208;-64
2023/06/07 02:54:39;;;;;;;8.90;8.20;;;13.40;99.90;;;;;;4967366;28;20230;-65
2023/06/07 02:57:06;;;;;;;8.37;7.83;;;13.40;99.90;;;;;;4975157;28;20180;-64
2023/06/07 02:59:31;;;;;;;10.40;8.80;;;13.40;99.90;;;;;;4957241;28;20427;-65
2023/06/07 03:01:57;;;;;;;10.70;7.63;;;13.40;99.90;;;;;;4974606;28;20509;-63
2023/06/07 03:04:25;;;;;;;7.80;7.00;;;13.30;99.90;;;;;;4956165;28;20227;-65
2023/06/07 03:06:51;;;;;;;8.13;7.53;;;13.30;99.90;;;;;;4974721;28;20207;-64
2023/06/07 03:09:18;;;;;;;9.00;8.40;;;13.30;99.90;;;;;;4973483;28;20438;-65
2023/06/07 03:11:44;;;;;;;8.20;7.40;;;13.30;99.90;;;;;;4975244;28;20835;-63
2023/06/07 03:14:09;;;;;;;8.03;7.43;;;13.30;99.90;;;;;;4975151;28;20446;-65
2023/06/07 03:16:35;;;;;;;7.90;7.30;;;13.40;99.90;;;;;;4977223;28;20192;-64
2023/06/07 03:19:00;;;;;;;8.90;8.10;;;13.40;99.90;;;;;;4974963;28;20203;-64
2023/06/07 03:21:26;;;;;;;7.90;7.30;;;13.20;99.90;;;;;;4973138;28;20247;-64
2023/06/07 03:23:53;;;;;;;9.20;8.40;;;13.10;99.90;;;;;;4973112;28;20196;-64
2023/06/07 03:26:18;;;;;;;8.17;7.50;;;13.00;99.90;;;;;;4970775;28;20215;-64
2023/06/07 03:28:44;;;;;;;8.20;7.60;;;12.90;99.90;;;;;;4972198;28;20916;-64
2023/06/07 03:31:10;;;;;;;8.93;8.20;;;12.80;99.90;;;;;;4974516;28;20837;-64
2023/06/07 03:33:35;;;;;;;9.27;8.57;;;12.70;99.90;;;;;;4974927;28;20266;-64
2023/06/07 03:36:01;;;;;;;9.70;8.70;;;12.80;99.90;;;;;;4973136;28;20184;-64
2023/06/07 03:38:28;;;;;;;7.50;7.00;;;12.80;99.90;;;;;;4972685;28;20181;-65
2023/06/07 03:40:54;;;;;;;9.23;8.50;;;12.90;99.90;;;;;;4968640;28;20247;-65
2023/06/07 03:43:19;;;;;;;9.20;8.50;;;13.00;99.90;;;;;;4973212;28;20435;-65
2023/06/07 03:45:45;;;;;;;7.63;6.90;;;13.20;99.90;;;;;;4968170;28;20285;-64
2023/06/07 03:48:10;;;;;;;9.10;8.33;;;13.40;99.90;;;;;;4971589;28;20203;-65
2023/06/07 03:50:36;;;;;;;9.03;8.23;;;13.40;99.90;;;;;;4965911;28;20227;-64
2023/06/07 03:53:01;;;;;;;7.90;7.30;;;13.30;99.90;;;;;;4973623;28;20220;-64
2023/06/07 03:55:29;;;;;;;9.70;8.00;;;13.40;99.90;;;;;;4970792;28;20212;-65
2023/06/07 03:57:54;;;;;;;9.30;7.00;;;13.50;99.90;;;;;;4971585;28;20336;-65
2023/06/07 04:00:20;;;;;;;7.57;7.07;;;13.40;99.90;;;;;;4967279;28;20487;-64
2023/06/07 04:02:46;;;;;;;9.00;8.37;;;13.40;99.90;;;;;;4972789;28;20180;-65
2023/06/07 04:05:12;;;;;;;8.27;7.70;;;13.50;99.90;;;;;;4972126;28;20177;-65
2023/06/07 04:07:37;;;;;;;8.63;7.47;;;13.60;99.90;;;;;;4972527;28;20463;-65
2023/06/07 04:10:03;;;;;;;8.70;8.00;;;13.70;99.90;;;;;;4970944;28;20291;-64
2023/06/07 04:12:28;;;;;;;9.33;8.33;;;13.70;99.90;;;;;;4970840;28;20262;-63
2023/06/07 04:14:54;;;;;;;7.83;7.13;;;13.90;99.90;;;;;;4963252;28;20209;-65
2023/06/07 04:17:19;;;;;;;7.87;7.37;;;14.00;99.90;;;;;;4974103;28;20172;-65
2023/06/07 04:19:45;;;;;;;9.03;8.23;;;14.20;99.90;;;;;;4972465;28;20215;-65
2023/06/07 04:22:11;;;;;;;8.00;7.40;;;14.30;99.90;;;;;;4973075;28;20203;-65
2023/06/07 04:24:36;;;;;;;8.50;7.90;;;14.40;99.90;;;;;;4970719;28;20234;-64
2023/06/07 04:27:02;;;;;;;7.17;6.47;;;14.50;99.90;;;;;;4971356;28;20436;-63
2023/06/07 04:29:28;;;;;;;9.30;8.33;;;14.50;99.90;;;;;;4967840;28;20763;-65
2023/06/07 04:31:56;;;;;;;9.90;9.00;;;14.70;99.90;;;;;;4971749;28;20577;-65
2023/06/07 04:34:25;;;;;;;8.47;7.80;;;14.80;99.90;;;;;;4973024;28;20654;-64
2023/06/07 04:36:51;;;;;;;9.43;8.63;;;14.80;99.90;;;;;;4970792;28;20432;-63
2023/06/07 04:39:18;;;;;;;7.90;7.20;;;14.80;99.90;;;;;;4972020;28;20446;-65
2023/06/07 04:41:45;;;;;;;8.87;8.13;;;14.80;99.90;;;;;;4969118;28;20486;-65
2023/06/07 04:44:11;;;;;;;9.50;8.60;;;15.00;99.90;;;;;;4972123;28;20432;-65
2023/06/07 04:46:39;;;;;;;8.33;7.70;;;15.20;99.90;;;;;;4970251;28;20439;-65
2023/06/07 04:49:05;;;;;;;9.90;9.00;;;15.30;99.90;;;;;;4970977;28;20462;-65
2023/06/07 04:51:31;;;;;;;8.40;7.70;;;15.30;99.90;;;;;;4968687;28;20467;-65
2023/06/07 04:54:01;;;;;;;8.57;7.70;;;15.30;99.90;;;;;;4971861;28;20971;-64
2023/06/07 04:56:27;;;;;;;8.60;7.90;;;15.50;99.90;;;;;;4970682;28;20650;-63
2023/06/07 04:58:53;;;;;;;8.10;7.50;;;15.80;99.90;;;;;;4967456;28;20574;-65
2023/06/07 05:01:19;;;;;;;9.53;8.70;;;15.90;99.90;;;;;;4970805;28;20459;-65
2023/06/07 05:03:44;;;;;;;8.43;7.63;;;16.10;99.90;;;;;;4973350;28;20485;-65
2023/06/07 05:06:11;;;;;;;10.30;8.67;;;16.20;99.90;;;;;;4969235;28;20311;-65
2023/06/07 05:08:36;;;;;;;9.33;8.50;;;16.30;99.90;;;;;;4974610;28;20211;-65
2023/06/07 05:11:02;;;;;;;13.23;11.93;;;16.50;99.90;;;;;;4972097;28;20497;-64
2023/06/07 05:13:27;;;;;;;9.87;9.10;;;16.60;99.90;;;;;;4969719;28;20799;-65
2023/06/07 05:15:54;;;;;;;8.53;7.80;;;16.70;99.90;;;;;;4962856;28;20211;-65
2023/06/07 05:18:20;;;;;;;9.13;8.27;;;16.80;99.90;;;;;;4969283;28;20183;-65
2023/06/07 05:20:49;;;;;;;8.77;8.00;;;16.70;99.90;;;;;;4971234;28;21055;-65
2023/06/07 05:23:18;;;;;;;9.00;8.20;;;16.80;99.90;;;;;;4964295;28;20439;-65
2023/06/07 05:25:44;;;;;;;7.10;6.60;;;16.80;99.90;;;;;;4970704;28;20435;-64
2023/06/07 05:28:10;;;;;;;8.83;8.23;;;16.90;99.90;;;;;;4972841;28;20435;-65
2023/06/07 05:30:36;;;;;;;7.90;7.40;;;17.10;99.90;;;;;;4972850;28;20822;-64
2023/06/07 05:33:01;;;;;;;8.23;7.57;;;17.30;99.90;;;;;;4970394;28;20441;-65
2023/06/07 05:35:27;;;;;;;8.53;7.80;;;17.50;99.90;;;;;;4972292;28;20279;-65
2023/06/07 05:37:52;;;;;;;8.20;7.60;;;17.70;99.90;;;;;;4971328;28;20302;-65
2023/06/07 05:40:18;;;;;;;8.10;7.50;;;17.80;99.90;;;;;;4965666;28;20588;-65
2023/06/07 05:42:45;;;;;;;9.93;9.13;;;17.90;99.90;;;;;;4972287;28;20195;-65
2023/06/07 05:45:10;;;;;;;9.07;8.47;;;18.00;99.90;;;;;;4969882;28;20199;-65
2023/06/07 05:47:36;;;;;;;9.50;8.80;;;18.10;99.90;;;;;;4967905;28;20967;-65
2023/06/07 05:50:03;;;;;;;10.23;9.33;;;18.10;99.90;;;;;;4970585;28;20204;-64
2023/06/07 05:52:28;;;;;;;10.07;9.37;;;18.10;99.90;;;;;;4972237;28;20204;-64
2023/06/07 05:54:55;;;;;;;11.23;10.13;;;18.20;99.90;;;;;;4966006;28;20490;-65
2023/06/07 05:57:21;;;;;;;9.93;9.23;;;18.10;99.90;;;;;;4972851;28;20188;-65
2023/06/07 05:59:47;;;;;;;10.50;9.60;;;18.20;99.90;;;;;;4969678;28;20458;-64
2023/06/07 06:02:15;;;;;;;10.03;9.30;;;18.20;99.90;;;;;;4967513;28;20454;-64
2023/06/07 06:04:40;;;;;;;10.03;9.33;;;18.20;99.90;;;;;;4949037;29;20251;-69
2023/06/07 06:07:06;;;;;;;9.80;8.80;;;18.40;99.90;;;;;;4970386;28;21031;-69
2023/06/07 06:09:31;;;;;;;9.87;9.17;;;18.60;99.90;;;;;;4970939;28;20188;-69
2023/06/07 06:11:59;;;;;;;10.70;9.33;;;18.70;99.90;;;;;;4973351;28;20208;-69
2023/06/07 06:14:25;;;;;;;10.03;9.23;;;18.90;99.90;;;;;;4975703;28;20188;-69
2023/06/07 06:16:51;;;;;;;8.97;8.27;;;19.10;99.90;;;;;;4976058;28;20987;-69
2023/06/07 06:19:16;;;;;;;9.90;9.10;;;19.20;99.90;;;;;;4973834;28;20723;-68
2023/06/07 06:21:42;;;;;;;9.93;9.13;;;19.30;99.90;;;;;;4969543;28;20271;-68
2023/06/07 06:24:08;;;;;;;10.83;9.93;;;19.40;99.90;;;;;;4974142;28;20195;-69
2023/06/07 06:26:33;;;;;;;9.80;9.10;;;19.50;99.90;;;;;;4971386;28;20203;-69
2023/06/07 06:28:59;;;;;;;10.80;9.80;;;19.50;99.90;;;;;;4975034;28;20184;-70
2023/06/07 06:31:25;;;;;;;10.97;9.97;;;19.60;99.90;;;;;;4972694;28;20258;-68
2023/06/07 06:33:50;;;;;;;9.47;8.50;;;19.60;99.90;;;;;;4972686;28;20196;-69
2023/06/07 06:36:17;;;;;;;10.03;9.30;;;19.70;99.90;;;;;;4971177;28;20438;-69
2023/06/07 06:38:43;;;;;;;9.10;8.50;;;19.80;99.90;;;;;;4973865;28;20235;-70
2023/06/07 06:41:09;;;;;;;10.30;9.50;;;19.90;99.90;;;;;;4975167;28;20466;-68
2023/06/07 06:43:35;;;;;;;9.73;8.90;;;19.90;99.90;;;;;;4982160;28;20493;-68
2023/06/07 06:46:01;;;;;;;9.93;9.00;;;20.00;99.90;;;;;;4973151;28;20957;-68
2023/06/07 06:48:26;;;;;;;10.87;9.87;;;20.20;99.90;;;;;;4973211;28;20506;-69
2023/06/07 06:50:52;;;;;;;10.50;9.73;;;20.30;99.90;;;;;;4972926;28;20208;-69
2023/06/07 06:53:18;;;;;;;10.20;9.40;;;20.50;99.90;;;;;;4972767;28;20184;-69
2023/06/07 06:55:43;;;;;;;9.40;8.23;;;20.60;99.90;;;;;;4973587;28;20287;-69
2023/06/07 06:58:09;;;;;;;9.17;8.47;;;20.70;99.90;;;;;;4976715;28;20176;-69
2023/06/07 07:00:38;;;;;;;9.93;9.23;;;20.90;99.90;;;;;;4977512;28;20204;-68
2023/06/07 07:03:03;;;;;;;9.37;8.70;;;20.80;99.90;;;;;;4973291;28;20651;-70
2023/06/07 07:05:29;;;;;;;9.70;8.90;;;20.70;99.90;;;;;;4970432;28;20467;-69
2023/06/07 07:07:54;;;;;;;10.37;9.50;;;20.70;99.90;;;;;;4972974;28;20207;-68
2023/06/07 07:10:20;;;;;;;10.70;9.60;;;21.00;99.90;;;;;;4971882;28;20226;-69
2023/06/07 07:12:46;;;;;;;9.37;8.53;;;21.10;99.90;;;;;;4973291;28;20210;-69
2023/06/07 07:15:11;;;;;;;10.23;9.43;;;21.10;99.90;;;;;;4971319;28;20188;-69
2023/06/07 07:17:48;;;;;;;11.57;9.03;;;21.20;99.90;;;;;;4974197;28;20183;-70
2023/06/07 07:20:15;;;;;;;9.43;8.20;;;21.40;99.90;;;;;;4974448;28;20250;-69
2023/06/07 07:22:41;;;;;;;8.63;8.00;;;21.60;99.90;;;;;;4972857;28;20455;-69
2023/06/07 07:25:07;;;;;;;7.50;6.80;;;21.60;99.90;;;;;;4967058;28;20455;-70
2023/06/07 07:27:33;;;;;;;7.80;7.20;;;21.80;99.90;;;;;;4972975;28;20440;-70
2023/06/07 07:29:59;;;;;;;7.70;7.00;;;21.80;99.90;;;;;;4972655;28;20506;-70
2023/06/07 07:32:25;;;;;;;6.20;5.80;;;21.90;99.90;;;;;;4972523;28;20231;-70
2023/06/07 07:34:50;;;;;;;7.10;6.60;;;21.90;99.90;;;;;;4970143;28;20451;-69
2023/06/07 07:37:16;;;;;;;7.10;6.50;;;21.90;99.90;;;;;;4970000;28;20196;-69
2023/06/07 07:39:42;;;;;;;6.37;5.40;;;22.00;99.90;;;;;;4971848;28;20672;-69
2023/06/07 07:42:08;;;;;;;6.80;6.30;;;22.10;99.90;;;;;;4973006;28;20475;-69
2023/06/07 07:44:34;;;;;;;6.47;5.87;;;22.10;99.90;;;;;;4968410;28;20223;-68
2023/06/07 07:47:00;;;;;;;5.93;5.63;;;22.20;99.90;;;;;;4971729;28;20191;-69
2023/06/07 07:49:25;;;;;;;6.50;6.00;;;22.00;99.90;;;;;;4969813;28;20448;-69
2023/06/07 07:51:51;;;;;;;6.50;5.70;;;22.10;99.90;;;;;;4970710;28;20573;-69
2023/06/07 07:54:17;;;;;;;5.63;5.10;;;22.20;99.90;;;;;;4973472;28;20222;-69
2023/06/07 07:56:43;;;;;;;5.27;4.97;;;22.40;99.90;;;;;;4968218;28;20254;-69
2023/06/07 07:59:08;;;;;;;6.80;5.57;;;22.40;99.90;;;;;;4971191;28;21027;-69
2023/06/07 08:01:34;;;;;;;6.57;6.07;;;22.30;99.90;;;;;;4962775;28;20534;-68
2023/06/07 08:03:59;;;;;;;6.03;5.53;;;22.70;99.90;;;;;;4972842;28;20184;-69
2023/06/07 08:06:25;;;;;;;4.80;4.50;;;22.90;99.90;;;;;;4969926;28;20234;-68
2023/06/07 08:08:51;;;;;;;5.80;5.30;;;22.80;99.90;;;;;;4972063;28;20821;-69
2023/06/07 08:11:17;;;;;;;5.23;4.87;;;22.90;99.90;;;;;;4971305;28;20706;-68
2023/06/07 08:13:43;;;;;;;4.87;4.57;;;22.80;99.90;;;;;;4973254;28;20515;-69
2023/06/07 08:16:09;;;;;;;5.10;4.30;;;23.10;99.90;;;;;;4965739;28;20185;-69
2023/06/07 08:18:34;;;;;;;5.00;4.40;;;23.30;99.90;;;;;;4971879;28;20191;-69
2023/06/07 08:21:00;;;;;;;5.70;5.30;;;23.60;99.90;;;;;;4972793;28;20215;-69
2023/06/07 08:23:26;;;;;;;5.23;4.83;;;23.80;99.70;;;;;;4974120;28;20526;-69
2023/06/07 08:25:51;;;;;;;4.70;4.07;;;24.00;98.90;;;;;;4973877;28;20212;-69
2023/06/07 08:28:17;;;;;;;4.67;4.23;;;23.90;98.80;;;;;;4963190;28;20176;-68
2023/06/07 08:30:43;;;;;;;4.80;4.47;;;23.60;98.80;;;;;;4973012;28;20200;-69
2023/06/07 08:33:08;;;;;;;5.90;5.50;;;23.70;98.80;;;;;;4971351;28;20440;-69
2023/06/07 08:35:34;;;;;;;6.00;5.50;;;23.80;98.00;;;;;;4973674;28;20199;-68
2023/06/07 08:38:00;;;;;;;5.40;4.90;;;23.70;98.30;;;;;;4972099;28;20697;-68
2023/06/07 08:40:26;;;;;;;6.63;5.60;;;23.80;98.20;;;;;;4973107;28;20196;-69
2023/06/07 08:42:52;;;;;;;5.10;4.77;;;24.00;97.10;;;;;;4972062;28;20184;-69
2023/06/07 08:45:18;;;;;;;5.20;4.80;;;23.50;98.00;;;;;;4972609;28;20843;-69
2023/06/07 08:47:44;;;;;;;5.20;4.90;;;23.40;97.90;;;;;;4971894;28;20188;-69
2023/06/07 08:50:13;;;;;;;8.43;5.00;;;23.00;98.60;;;;;;4972210;28;20204;-69
2023/06/07 08:52:40;;;;;;;4.77;4.37;;;22.90;98.60;;;;;;4972346;28;20455;-68
2023/06/07 08:55:11;;;;;;;4.90;4.60;;;23.50;97.90;;;;;;4969841;28;20454;-69
2023/06/07 08:57:37;;;;;;;6.00;5.50;;;23.30;97.90;;;;;;4964879;28;20428;-68
2023/06/07 09:00:08;;;;;;;5.30;4.80;;;23.20;98.60;;;;;;4971003;28;20579;-69
2023/06/07 09:02:34;;;;;;;5.10;4.80;;;23.70;98.30;;;;;;4967157;28;20443;-69
2023/06/07 09:05:06;;;;;;;5.57;4.70;;;24.10;97.10;;;;;;4966420;28;20497;-69
2023/06/07 09:07:32;;;;;;;5.80;5.40;;;24.70;96.50;;;;;;4971286;28;21006;-69
2023/06/07 09:09:58;;;;;;;5.73;5.20;;;25.10;95.20;;;;;;4964760;28;20864;-68
2023/06/07 09:12:23;;;;;;;5.83;4.60;;;25.00;95.30;;;;;;4972166;28;20459;-69
2023/06/07 09:14:50;;;;;;;5.50;4.57;;;25.50;93.90;;;;;;4970946;28;20168;-68
2023/06/07 09:17:16;;;;;;;6.50;5.20;;;26.20;92.60;;;;;;4968985;28;20207;-69
2023/06/07 09:19:42;;;;;;;5.63;4.73;;;26.50;91.40;;;;;;4970257;28;20455;-68
2023/06/07 09:22:10;;;;;;;4.87;4.50;;;25.90;91.20;;;;;;4971057;28;20177;-69
2023/06/07 09:24:37;;;;;;;4.17;3.87;;;26.20;91.10;;;;;;4971340;28;20435;-69
2023/06/07 09:27:04;;;;;;;3.60;3.40;;;26.40;90.70;;;;;;4972095;28;20440;-69
2023/06/07 09:29:37;;;;;;;6.47;4.20;;;26.70;88.50;;;;;;4970142;28;20443;-69
2023/06/07 09:32:25;;;;;;;4.77;4.40;;;27.20;86.70;;;;;;4971184;28;20490;-68
2023/06/07 09:34:53;;;;;;;4.13;3.83;;;27.20;85.20;;;;;;4970101;28;20439;-68
2023/06/07 09:37:20;;;;;;;5.60;4.17;;;26.80;83.40;;;;;;4971471;28;20462;-68
2023/06/07 09:39:50;;;;;;;4.60;4.10;;;26.70;84.20;;;;;;4969656;28;20459;-69
2023/06/07 09:42:16;;;;;;;4.30;3.90;;;26.90;82.30;;;;;;4969214;28;20518;-70
2023/06/07 09:44:42;;;;;;;4.90;4.47;;;27.60;80.50;;;;;;4952418;28;20436;-69
2023/06/07 09:47:22;;;;;;;4.70;4.30;;;28.10;77.20;;;;;;4966331;28;20440;-68
2023/06/07 09:49:47;;;;;;;4.43;3.97;;;28.30;75.40;;;;;;4955947;28;20831;-69
2023/06/07 09:52:15;;;;;;;4.70;4.40;;;29.00;72.50;;;;;;4970728;28;20460;-69
2023/06/07 09:54:44;;;;;;;4.10;3.80;;;29.60;70.10;;;;;;4971325;28;20180;-69
2023/06/07 09:57:23;;;;;;;3.80;3.50;;;30.60;88.10;;;;;;4969941;28;21811;-69
2023/06/07 10:00:00;;;;;;;3.90;3.50;;;30.90;83.90;;;;;;4970940;28;20455;-69
2023/06/07 10:02:29;;;;;;;3.60;3.40;;;31.60;71.70;;;;;;4968630;28;20439;-69
2023/06/07 10:04:59;;;;;;;4.87;3.07;;;31.70;68.20;;;;;;4976345;28;20431;-68
2023/06/07 10:07:30;;;;;;;3.90;3.00;;;30.90;68.00;;;;;;4970696;28;20443;-69
2023/06/07 10:09:58;;;;;;;3.40;3.10;;;30.00;69.60;;;;;;4966801;28;20570;-69
2023/06/07 10:12:31;;;;;;;3.30;3.10;;;29.40;69.30;;;;;;4971346;28;20553;-68
2023/06/07 10:15:00;;;;;;;8.13;4.10;;;28.80;70.00;;;;;;4969362;28;20748;-68
2023/06/07 10:17:32;;;;;;;3.70;3.40;;;28.30;69.10;;;;;;4968938;28;20502;-68
2023/06/07 10:20:01;;;;;;;3.57;3.27;;;28.50;68.40;;;;;;4966778;28;20554;-68
2023/06/07 10:22:34;;;;;;;3.33;3.13;;;29.60;69.10;;;;;;4972198;28;20443;-68
2023/06/07 10:25:05;;;;;;;4.63;3.20;;;32.10;59.60;;;;;;4968242;28;20435;-68
2023/06/07 10:27:41;;;;;;;3.73;3.43;;;33.10;57.50;;;;;;4950210;28;20462;-68
2023/06/07 10:30:11;;;;;;;3.67;3.27;;;32.50;58.40;;;;;;4970127;28;20487;-68
2023/06/07 10:32:38;;;;;;;3.73;3.53;;;32.20;58.80;;;;;;4968499;28;20538;-68
2023/06/07 10:35:08;;;;;;;3.90;3.70;;;30.60;60.80;;;;;;4950529;28;20892;-68
2023/06/07 10:37:36;;;;;;;3.90;3.60;;;30.70;61.00;;;;;;4968573;28;21008;-69
2023/06/07 10:40:09;;;;;;;3.37;3.07;;;32.40;60.80;;;;;;4967280;28;20559;-68
2023/06/07 10:42:35;;;;;;;3.20;3.00;;;34.50;57.70;;;;;;4971041;28;20439;-67
2023/06/07 10:45:01;;;;;;;3.13;2.90;;;35.90;54.50;;;;;;4970169;28;21024;-68
2023/06/07 10:47:29;;;;;;;3.43;3.13;;;36.90;44.40;;;;;;4969225;28;20447;-68
2023/06/07 10:49:54;;;;;;;4.30;4.03;;;37.40;42.40;;;;;;4966528;28;20277;-66
2023/06/07 10:52:21;;;;;;;3.57;3.37;;;37.50;41.00;;;;;;4970760;28;21004;-66
2023/06/07 10:54:47;;;;;;;3.30;3.20;;;38.70;38.90;;;;;;4973990;28;20566;-68
2023/06/07 10:57:13;;;;;;;3.33;3.03;;;38.60;48.40;;;;;;4973736;28;20526;-68
2023/06/07 10:59:39;;;;;;;4.30;4.00;;;39.80;35.40;;;;;;4974065;28;20176;-69
2023/06/07 11:02:31;;;;;;;3.27;3.07;;;39.90;35.00;;;;;;4964823;28;20959;-66
2023/06/07 11:04:58;;;;;;;3.23;3.03;;;39.20;35.10;;;;;;4962858;28;20436;-66
2023/06/07 11:07:30;;;;;;;3.40;3.20;;;40.50;32.90;;;;;;4969667;28;20458;-66
2023/06/07 11:10:04;;;;;;;3.33;3.00;;;39.40;33.10;;;;;;4972254;28;20539;-66
2023/06/07 11:12:40;;;;;;;2.63;2.53;;;38.20;34.40;;;;;;4974602;28;20466;-66
2023/06/07 11:15:21;;;;;;;3.40;3.20;;;37.10;35.50;;;;;;4974044;28;20443;-66
2023/06/07 11:17:54;;;;;;;2.97;2.77;;;37.60;35.40;;;;;;4978138;28;20546;-68
2023/06/07 11:20:35;;;;;;;3.30;3.00;;;38.50;34.40;;;;;;4975028;28;21000;-68
2023/06/07 11:23:26;;;;;;;4.67;2.87;;;39.30;33.30;;;;;;4974003;28;20582;-66
2023/06/07 11:25:54;;;;;;;2.97;2.77;;;40.50;43.60;;;;;;4970896;28;20447;-65
2023/06/07 11:28:28;;;;;;;3.27;3.07;;;41.40;31.10;;;;;;4977809;28;20538;-66
2023/06/07 11:30:55;;;;;;;2.80;2.60;;;42.10;30.00;;;;;;4964285;28;20533;-65
2023/06/07 11:33:21;;;;;;;6.60;3.10;;;41.80;29.80;;;;;;4972256;28;20449;-65
2023/06/07 11:35:48;;;;;;;2.50;2.40;;;42.40;41.70;;;;;;4973917;28;20440;-65
2023/06/07 11:38:13;;;;;;;3.40;3.20;;;41.70;42.20;;;;;;4969057;28;20506;-65
2023/06/07 11:40:39;;;;;;;3.17;2.97;;;41.50;42.00;;;;;;4974185;28;20459;-65
2023/06/07 11:43:11;;;;;;;3.07;2.90;;;39.60;42.40;;;;;;4970732;28;20234;-67
2023/06/07 11:45:40;;;;;;;3.00;2.80;;;37.10;44.10;;;;;;4965970;28;20200;-67
2023/06/07 11:48:06;;;;;;;3.23;3.03;;;34.60;46.30;;;;;;4971788;28;20423;-68
2023/06/07 11:50:35;;;;;;;11.20;9.10;;;34.60;47.10;;;;;;4968589;28;20441;-67
2023/06/07 11:53:01;;;;;;;3.50;3.20;;;35.80;46.10;;;;;;4972753;28;20475;-67
2023/06/07 11:55:27;;;;;;;3.17;2.87;;;36.60;45.20;;;;;;4969672;28;21048;-67
2023/06/07 11:57:53;;;;;;;2.73;2.60;;;38.50;43.50;;;;;;4970661;28;20295;-67
2023/06/07 12:00:27;;;;;;;3.00;2.53;;;41.00;38.70;;;;;;4971980;28;20219;-65
2023/06/07 12:02:53;;;;;;;2.30;2.20;;;42.60;37.70;;;;;;4971900;28;20952;-65
2023/06/07 12:05:21;;;;;;;2.83;2.63;;;43.30;34.90;;;;;;4971378;28;20979;-65
2023/06/07 12:08:04;;;;;;;3.13;2.97;;;43.40;34.80;;;;;;4969203;28;20835;-67
2023/06/07 12:10:30;;;;;;;2.90;2.70;;;41.20;36.10;;;;;;4964097;28;20549;-65
2023/06/07 12:13:14;;;;;;;2.90;2.30;;;41.80;35.60;;;;;;4967451;28;20850;-66
2023/06/07 12:15:54;;;;;;;2.83;2.73;;;40.70;35.80;;;;;;4969051;28;20577;-65
2023/06/07 12:18:23;;;;;;;3.47;3.10;;;41.50;36.70;;;;;;4971239;28;20562;-65
2023/06/07 12:21:04;;;;;;;2.87;2.67;;;40.60;37.10;;;;;;4970212;28;20475;-65
2023/06/07 12:23:31;;;;;;;3.13;2.90;;;37.90;38.10;;;;;;4967051;28;20443;-67
2023/06/07 12:26:06;;;;;;;2.80;2.60;;;35.90;40.00;;;;;;4972092;28;20470;-67
2023/06/07 12:28:33;;;;;;;2.90;2.80;;;33.10;42.90;;;;;;4966830;28;20542;-65
2023/06/07 12:30:58;;;;;;;3.23;3.03;;;34.00;43.10;;;;;;4971920;28;20513;-65
2023/06/07 12:33:27;;;;;;;3.20;3.00;;;36.20;40.90;;;;;;4968823;28;20440;-65
2023/06/07 12:35:53;;;;;;;3.30;3.00;;;36.10;40.00;;;;;;4970092;28;20187;-67
2023/06/07 12:38:20;;;;;;;3.27;3.07;;;34.80;42.00;;;;;;4968698;28;20527;-66
2023/06/07 12:40:46;;;;;;;3.03;2.50;;;36.00;42.20;;;;;;4972603;28;20209;-65
2023/06/07 12:43:11;;;;;;;2.43;2.23;;;38.80;39.60;;;;;;4965601;28;20511;-65
2023/06/07 12:45:37;;;;;;;3.40;2.80;;;38.60;39.70;;;;;;4964931;28;20549;-65